sensor_id;sensor_type;location;lat;lon;timestamp;temperature;humidity
29539;DHT22;16482;51.046;4.498;2022-10-31T00:00:19;23.70;50.90
29539;DHT22;16482;51.046;4.498;2022-10-31T00:02:45;23.70;50.90
29539;DHT22;16482;51.046;4.498;2022-10-31T00:05:11;23.70;50.90
29539;DHT22;16482;51.046;4.498;2022-10-31T00:07:36;23.70;50.90
29539;DHT22;16482;51.046;4.498;2022-10-31T00:10:03;23.70;50.90
29539;DHT22;16482;51.046;4.498;2022-10-31T00:12:29;23.70;50.80
29539;DHT22;16482;51.046;4.498;2022-10-31T00:14:54;23.70;50.90
29539;DHT22;16482;51.046;4.498;2022-10-31T00:17:20;23.70;50.80
29539;DHT22;16482;51.046;4.498;2022-10-31T00:19:46;23.70;50.80
29539;DHT22;16482;51.046;4.498;2022-10-31T00:22:12;23.70;50.80
29539;DHT22;16482;51.046;4.498;2022-10-31T00:24:38;23.70;50.80
29539;DHT22;16482;51.046;4.498;2022-10-31T00:27:04;23.70;50.80
29539;DHT22;16482;51.046;4.498;2022-10-31T00:29:30;23.70;50.80
29539;DHT22;16482;51.046;4.498;2022-10-31T00:31:59;23.70;50.80
29539;DHT22;16482;51.046;4.498;2022-10-31T00:34:27;23.70;50.80
29539;DHT22;16482;51.046;4.498;2022-10-31T00:36:52;23.70;50.70
29539;DHT22;16482;51.046;4.498;2022-10-31T00:39:18;23.70;50.70
29539;DHT22;16482;51.046;4.498;2022-10-31T00:41:44;23.70;50.70
29539;DHT22;16482;51.046;4.498;2022-10-31T00:44:10;23.70;50.70
29539;DHT22;16482;51.046;4.498;2022-10-31T00:46:36;23.70;50.60
29539;DHT22;16482;51.046;4.498;2022-10-31T00:49:02;23.70;50.60
29539;DHT22;16482;51.046;4.498;2022-10-31T00:51:27;23.70;50.60
29539;DHT22;16482;51.046;4.498;2022-10-31T00:53:53;23.70;50.50
29539;DHT22;16482;51.046;4.498;2022-10-31T00:56:19;23.70;50.50
29539;DHT22;16482;51.046;4.498;2022-10-31T00:58:45;23.70;50.50
29539;DHT22;16482;51.046;4.498;2022-10-31T01:01:13;23.70;50.50
29539;DHT22;16482;51.046;4.498;2022-10-31T01:03:45;23.70;50.50
29539;DHT22;16482;51.046;4.498;2022-10-31T01:06:14;23.70;50.40
29539;DHT22;16482;51.046;4.498;2022-10-31T01:08:47;23.70;50.40
29539;DHT22;16482;51.046;4.498;2022-10-31T01:11:18;23.70;50.30
29539;DHT22;16482;51.046;4.498;2022-10-31T01:13:45;23.70;50.30
29539;DHT22;16482;51.046;4.498;2022-10-31T01:16:16;23.60;50.20
29539;DHT22;16482;51.046;4.498;2022-10-31T01:18:42;23.70;50.30
29539;DHT22;16482;51.046;4.498;2022-10-31T01:23:36;23.70;50.20
29539;DHT22;16482;51.046;4.498;2022-10-31T01:26:06;23.60;50.10
29539;DHT22;16482;51.046;4.498;2022-10-31T01:28:32;23.60;50.10
29539;DHT22;16482;51.046;4.498;2022-10-31T01:31:07;23.70;50.00
29539;DHT22;16482;51.046;4.498;2022-10-31T01:33:34;23.70;50.00
29539;DHT22;16482;51.046;4.498;2022-10-31T01:35:59;23.70;50.00
29539;DHT22;16482;51.046;4.498;2022-10-31T01:38:26;23.60;50.00
29539;DHT22;16482;51.046;4.498;2022-10-31T01:40:52;23.60;49.90
29539;DHT22;16482;51.046;4.498;2022-10-31T01:43:18;23.60;49.90
29539;DHT22;16482;51.046;4.498;2022-10-31T01:45:52;23.60;49.80
29539;DHT22;16482;51.046;4.498;2022-10-31T01:48:24;23.60;49.80
29539;DHT22;16482;51.046;4.498;2022-10-31T01:50:54;23.60;49.80
29539;DHT22;16482;51.046;4.498;2022-10-31T01:53:20;23.60;49.70
29539;DHT22;16482;51.046;4.498;2022-10-31T01:55:47;23.60;49.70
29539;DHT22;16482;51.046;4.498;2022-10-31T01:58:25;23.60;49.70
29539;DHT22;16482;51.046;4.498;2022-10-31T02:00:57;23.60;49.60
29539;DHT22;16482;51.046;4.498;2022-10-31T02:03:25;23.60;49.60
29539;DHT22;16482;51.046;4.498;2022-10-31T02:05:53;23.60;49.60
29539;DHT22;16482;51.046;4.498;2022-10-31T02:08:31;23.60;49.60
29539;DHT22;16482;51.046;4.498;2022-10-31T02:10:58;23.60;49.50
29539;DHT22;16482;51.046;4.498;2022-10-31T02:13:25;23.60;49.50
29539;DHT22;16482;51.046;4.498;2022-10-31T02:15:56;23.60;49.50
29539;DHT22;16482;51.046;4.498;2022-10-31T02:18:24;23.60;49.40
29539;DHT22;16482;51.046;4.498;2022-10-31T02:21:18;23.60;49.30
29539;DHT22;16482;51.046;4.498;2022-10-31T02:30:00;23.60;49.00
29539;DHT22;16482;51.046;4.498;2022-10-31T02:35:27;23.60;48.80
29539;DHT22;16482;51.046;4.498;2022-10-31T02:41:07;23.60;48.80
29539;DHT22;16482;51.046;4.498;2022-10-31T02:44:02;23.60;48.60
29539;DHT22;16482;51.046;4.498;2022-10-31T02:49:07;23.60;48.60
29539;DHT22;16482;51.046;4.498;2022-10-31T02:51:36;23.50;48.40
29539;DHT22;16482;51.046;4.498;2022-10-31T02:54:03;23.60;48.40
29539;DHT22;16482;51.046;4.498;2022-10-31T02:56:28;23.50;48.40
29539;DHT22;16482;51.046;4.498;2022-10-31T02:58:59;23.60;48.40
29539;DHT22;16482;51.046;4.498;2022-10-31T03:02:00;23.60;48.20
29539;DHT22;16482;51.046;4.498;2022-10-31T03:07:24;23.60;48.10
29539;DHT22;16482;51.046;4.498;2022-10-31T03:12:33;23.50;48.00
29539;DHT22;16482;51.046;4.498;2022-10-31T03:18:02;23.50;47.90
29539;DHT22;16482;51.046;4.498;2022-10-31T03:20:45;23.50;47.90
29539;DHT22;16482;51.046;4.498;2022-10-31T03:23:15;23.60;47.90
29539;DHT22;16482;51.046;4.498;2022-10-31T03:25:43;23.50;47.80
29539;DHT22;16482;51.046;4.498;2022-10-31T03:28:11;23.50;47.80
29539;DHT22;16482;51.046;4.498;2022-10-31T03:30:41;23.50;47.60
29539;DHT22;16482;51.046;4.498;2022-10-31T03:33:12;23.50;47.50
29539;DHT22;16482;51.046;4.498;2022-10-31T03:35:41;23.50;47.40
29539;DHT22;16482;51.046;4.498;2022-10-31T03:38:09;23.50;47.40
29539;DHT22;16482;51.046;4.498;2022-10-31T03:40:36;23.50;47.40
29539;DHT22;16482;51.046;4.498;2022-10-31T03:43:13;23.50;47.40
29539;DHT22;16482;51.046;4.498;2022-10-31T03:45:43;23.50;47.30
29539;DHT22;16482;51.046;4.498;2022-10-31T03:48:11;23.50;47.40
29539;DHT22;16482;51.046;4.498;2022-10-31T03:53:22;23.50;47.30
29539;DHT22;16482;51.046;4.498;2022-10-31T03:58:52;23.50;47.20
29539;DHT22;16482;51.046;4.498;2022-10-31T04:01:22;23.50;47.70
29539;DHT22;16482;51.046;4.498;2022-10-31T04:03:49;23.50;47.20
29539;DHT22;16482;51.046;4.498;2022-10-31T04:06:17;23.50;47.10
29539;DHT22;16482;51.046;4.498;2022-10-31T04:08:59;23.50;47.20
29539;DHT22;16482;51.046;4.498;2022-10-31T04:11:33;23.50;47.20
29539;DHT22;16482;51.046;4.498;2022-10-31T04:14:00;23.50;47.20
29539;DHT22;16482;51.046;4.498;2022-10-31T04:16:27;23.50;47.20
29539;DHT22;16482;51.046;4.498;2022-10-31T04:18:53;23.50;47.20
29539;DHT22;16482;51.046;4.498;2022-10-31T04:21:19;23.50;47.10
29539;DHT22;16482;51.046;4.498;2022-10-31T04:23:51;23.50;47.10
29539;DHT22;16482;51.046;4.498;2022-10-31T04:26:17;23.50;47.10
29539;DHT22;16482;51.046;4.498;2022-10-31T04:28:43;23.50;46.90
29539;DHT22;16482;51.046;4.498;2022-10-31T04:31:11;23.50;46.80
29539;DHT22;16482;51.046;4.498;2022-10-31T04:33:37;23.50;46.70
29539;DHT22;16482;51.046;4.498;2022-10-31T04:36:03;23.50;46.70
29539;DHT22;16482;51.046;4.498;2022-10-31T04:38:30;23.50;46.70
29539;DHT22;16482;51.046;4.498;2022-10-31T04:40:55;23.50;46.60
29539;DHT22;16482;51.046;4.498;2022-10-31T04:43:22;23.50;46.50
29539;DHT22;16482;51.046;4.498;2022-10-31T04:45:47;23.50;46.50
29539;DHT22;16482;51.046;4.498;2022-10-31T04:48:13;23.50;46.40
29539;DHT22;16482;51.046;4.498;2022-10-31T04:50:40;23.50;46.30
29539;DHT22;16482;51.046;4.498;2022-10-31T04:53:06;23.50;46.30
29539;DHT22;16482;51.046;4.498;2022-10-31T04:55:32;23.40;46.20
29539;DHT22;16482;51.046;4.498;2022-10-31T04:57:57;23.50;46.20
29539;DHT22;16482;51.046;4.498;2022-10-31T05:00:24;23.50;46.20
29539;DHT22;16482;51.046;4.498;2022-10-31T05:02:59;23.50;46.20
29539;DHT22;16482;51.046;4.498;2022-10-31T05:05:28;23.50;46.20
29539;DHT22;16482;51.046;4.498;2022-10-31T05:07:56;23.40;46.10
29539;DHT22;16482;51.046;4.498;2022-10-31T05:10:29;23.40;46.20
29539;DHT22;16482;51.046;4.498;2022-10-31T05:12:58;23.40;46.20
29539;DHT22;16482;51.046;4.498;2022-10-31T05:15:27;23.40;46.10
29539;DHT22;16482;51.046;4.498;2022-10-31T05:17:56;23.40;46.10
29539;DHT22;16482;51.046;4.498;2022-10-31T05:20:26;23.40;46.00
29539;DHT22;16482;51.046;4.498;2022-10-31T05:22:58;23.40;45.90
29539;DHT22;16482;51.046;4.498;2022-10-31T05:25:25;23.40;45.90
29539;DHT22;16482;51.046;4.498;2022-10-31T05:27:57;23.40;45.80
29539;DHT22;16482;51.046;4.498;2022-10-31T05:30:26;23.40;45.80
29539;DHT22;16482;51.046;4.498;2022-10-31T05:32:52;23.40;45.70
29539;DHT22;16482;51.046;4.498;2022-10-31T05:35:28;23.40;45.70
29539;DHT22;16482;51.046;4.498;2022-10-31T05:37:55;23.40;45.60
29539;DHT22;16482;51.046;4.498;2022-10-31T05:40:27;23.40;45.70
29539;DHT22;16482;51.046;4.498;2022-10-31T05:42:54;23.40;45.60
29539;DHT22;16482;51.046;4.498;2022-10-31T05:45:21;23.40;45.60
29539;DHT22;16482;51.046;4.498;2022-10-31T05:47:54;23.40;45.60
29539;DHT22;16482;51.046;4.498;2022-10-31T05:50:28;23.40;45.60
29539;DHT22;16482;51.046;4.498;2022-10-31T05:53:02;23.40;45.60
29539;DHT22;16482;51.046;4.498;2022-10-31T05:55:28;23.40;45.50
29539;DHT22;16482;51.046;4.498;2022-10-31T05:57:57;23.40;45.50
29539;DHT22;16482;51.046;4.498;2022-10-31T06:00:27;23.40;45.60
29539;DHT22;16482;51.046;4.498;2022-10-31T06:03:07;23.40;45.50
29539;DHT22;16482;51.046;4.498;2022-10-31T06:05:32;23.40;46.10
29539;DHT22;16482;51.046;4.498;2022-10-31T06:07:58;23.40;45.60
29539;DHT22;16482;51.046;4.498;2022-10-31T06:10:27;23.40;45.60
29539;DHT22;16482;51.046;4.498;2022-10-31T06:13:02;23.40;45.60
29539;DHT22;16482;51.046;4.498;2022-10-31T06:15:30;23.40;45.60
29539;DHT22;16482;51.046;4.498;2022-10-31T06:18:04;23.30;45.50
29539;DHT22;16482;51.046;4.498;2022-10-31T06:20:31;23.40;45.50
29539;DHT22;16482;51.046;4.498;2022-10-31T06:22:57;23.30;45.50
29539;DHT22;16482;51.046;4.498;2022-10-31T06:25:26;23.40;45.60
29539;DHT22;16482;51.046;4.498;2022-10-31T06:27:52;23.40;45.60
29539;DHT22;16482;51.046;4.498;2022-10-31T06:30:21;23.30;45.50
29539;DHT22;16482;51.046;4.498;2022-10-31T06:32:47;23.30;45.60
29539;DHT22;16482;51.046;4.498;2022-10-31T06:35:16;23.40;45.60
29539;DHT22;16482;51.046;4.498;2022-10-31T06:37:42;23.30;45.60
29539;DHT22;16482;51.046;4.498;2022-10-31T06:40:08;23.40;45.70
29539;DHT22;16482;51.046;4.498;2022-10-31T06:42:34;23.40;45.70
29539;DHT22;16482;51.046;4.498;2022-10-31T06:45:00;23.40;45.80
29539;DHT22;16482;51.046;4.498;2022-10-31T06:47:26;23.40;46.00
29539;DHT22;16482;51.046;4.498;2022-10-31T06:49:52;23.40;46.10
29539;DHT22;16482;51.046;4.498;2022-10-31T06:52:18;23.40;46.20
29539;DHT22;16482;51.046;4.498;2022-10-31T06:54:44;23.40;46.30
29539;DHT22;16482;51.046;4.498;2022-10-31T06:57:10;23.50;46.40
29539;DHT22;16482;51.046;4.498;2022-10-31T06:59:36;23.50;46.50
29539;DHT22;16482;51.046;4.498;2022-10-31T07:02:01;23.50;46.60
29539;DHT22;16482;51.046;4.498;2022-10-31T07:04:27;23.40;46.60
29539;DHT22;16482;51.046;4.498;2022-10-31T07:06:53;23.50;46.60
29539;DHT22;16482;51.046;4.498;2022-10-31T07:09:19;23.50;46.70
29539;DHT22;16482;51.046;4.498;2022-10-31T07:11:45;23.60;46.70
29539;DHT22;16482;51.046;4.498;2022-10-31T07:14:11;23.60;46.70
29539;DHT22;16482;51.046;4.498;2022-10-31T07:16:37;23.60;46.70
29539;DHT22;16482;51.046;4.498;2022-10-31T07:19:02;23.70;46.80
29539;DHT22;16482;51.046;4.498;2022-10-31T07:21:28;23.70;46.70
29539;DHT22;16482;51.046;4.498;2022-10-31T07:23:54;23.70;46.80
29539;DHT22;16482;51.046;4.498;2022-10-31T07:26:20;23.70;46.80
29539;DHT22;16482;51.046;4.498;2022-10-31T07:28:46;23.70;46.80
29539;DHT22;16482;51.046;4.498;2022-10-31T07:31:13;23.80;46.80
29539;DHT22;16482;51.046;4.498;2022-10-31T07:33:42;23.70;46.70
29539;DHT22;16482;51.046;4.498;2022-10-31T07:36:08;23.80;46.80
29539;DHT22;16482;51.046;4.498;2022-10-31T07:38:34;23.80;46.80
29539;DHT22;16482;51.046;4.498;2022-10-31T07:41:00;23.80;46.80
29539;DHT22;16482;51.046;4.498;2022-10-31T07:43:25;23.80;46.80
29539;DHT22;16482;51.046;4.498;2022-10-31T07:45:52;23.80;46.80
29539;DHT22;16482;51.046;4.498;2022-10-31T07:48:19;23.80;46.80
29539;DHT22;16482;51.046;4.498;2022-10-31T07:50:44;23.80;46.80
29539;DHT22;16482;51.046;4.498;2022-10-31T07:53:12;23.90;46.80
29539;DHT22;16482;51.046;4.498;2022-10-31T07:55:39;23.90;47.40
29539;DHT22;16482;51.046;4.498;2022-10-31T07:58:05;23.90;46.90
29539;DHT22;16482;51.046;4.498;2022-10-31T08:00:33;23.90;46.90
29539;DHT22;16482;51.046;4.498;2022-10-31T08:03:07;23.90;47.00
29539;DHT22;16482;51.046;4.498;2022-10-31T08:05:34;23.90;47.00
29539;DHT22;16482;51.046;4.498;2022-10-31T08:08:01;23.90;47.00
29539;DHT22;16482;51.046;4.498;2022-10-31T08:10:28;23.90;47.10
29539;DHT22;16482;51.046;4.498;2022-10-31T08:13:02;23.90;47.20
29539;DHT22;16482;51.046;4.498;2022-10-31T08:15:29;23.90;47.20
29539;DHT22;16482;51.046;4.498;2022-10-31T08:17:55;23.90;47.20
29539;DHT22;16482;51.046;4.498;2022-10-31T08:20:26;23.90;47.30
29539;DHT22;16482;51.046;4.498;2022-10-31T08:22:53;24.00;47.40
29539;DHT22;16482;51.046;4.498;2022-10-31T08:25:22;24.00;47.40
29539;DHT22;16482;51.046;4.498;2022-10-31T08:27:53;23.90;47.40
29539;DHT22;16482;51.046;4.498;2022-10-31T08:30:21;23.90;47.50
29539;DHT22;16482;51.046;4.498;2022-10-31T08:32:47;23.90;47.50
29539;DHT22;16482;51.046;4.498;2022-10-31T08:35:21;23.90;47.60
29539;DHT22;16482;51.046;4.498;2022-10-31T08:37:56;23.90;47.70
29539;DHT22;16482;51.046;4.498;2022-10-31T08:40:28;23.90;47.70
29539;DHT22;16482;51.046;4.498;2022-10-31T08:43:20;23.90;47.70
29539;DHT22;16482;51.046;4.498;2022-10-31T08:45:48;23.90;47.70
29539;DHT22;16482;51.046;4.498;2022-10-31T08:48:15;23.90;47.80
29539;DHT22;16482;51.046;4.498;2022-10-31T08:50:44;23.90;47.80
29539;DHT22;16482;51.046;4.498;2022-10-31T08:53:15;23.90;47.90
29539;DHT22;16482;51.046;4.498;2022-10-31T08:55:42;23.90;47.90
29539;DHT22;16482;51.046;4.498;2022-10-31T08:58:16;23.90;48.00
29539;DHT22;16482;51.046;4.498;2022-10-31T09:00:43;24.00;48.20
29539;DHT22;16482;51.046;4.498;2022-10-31T09:03:11;24.00;48.10
29539;DHT22;16482;51.046;4.498;2022-10-31T09:05:38;23.90;48.10
29539;DHT22;16482;51.046;4.498;2022-10-31T09:08:05;24.00;48.30
29539;DHT22;16482;51.046;4.498;2022-10-31T09:10:33;24.00;48.40
29539;DHT22;16482;51.046;4.498;2022-10-31T09:13:04;24.00;48.40
29539;DHT22;16482;51.046;4.498;2022-10-31T09:15:35;24.00;48.50
29539;DHT22;16482;51.046;4.498;2022-10-31T09:18:02;24.00;48.50
29539;DHT22;16482;51.046;4.498;2022-10-31T09:20:31;24.00;48.70
29539;DHT22;16482;51.046;4.498;2022-10-31T09:23:02;24.00;48.80
29539;DHT22;16482;51.046;4.498;2022-10-31T09:25:28;24.00;48.80
29539;DHT22;16482;51.046;4.498;2022-10-31T09:27:58;24.00;48.80
29539;DHT22;16482;51.046;4.498;2022-10-31T09:30:26;24.00;48.90
29539;DHT22;16482;51.046;4.498;2022-10-31T09:33:01;24.00;49.00
29539;DHT22;16482;51.046;4.498;2022-10-31T09:35:28;24.00;49.00
29539;DHT22;16482;51.046;4.498;2022-10-31T09:38:01;24.00;49.10
29539;DHT22;16482;51.046;4.498;2022-10-31T09:40:44;24.00;49.20
29539;DHT22;16482;51.046;4.498;2022-10-31T09:43:21;24.00;49.10
29539;DHT22;16482;51.046;4.498;2022-10-31T09:51:44;24.00;49.40
29539;DHT22;16482;51.046;4.498;2022-10-31T09:54:16;24.00;49.40
29539;DHT22;16482;51.046;4.498;2022-10-31T09:56:44;24.00;49.40
29539;DHT22;16482;51.046;4.498;2022-10-31T09:59:39;24.00;49.60
29539;DHT22;16482;51.046;4.498;2022-10-31T10:02:29;24.10;49.60
29539;DHT22;16482;51.046;4.498;2022-10-31T10:05:05;24.10;49.70
29539;DHT22;16482;51.046;4.498;2022-10-31T10:07:55;24.10;49.70
29539;DHT22;16482;51.046;4.498;2022-10-31T10:10:45;24.00;49.60
29539;DHT22;16482;51.046;4.498;2022-10-31T10:15:55;24.00;49.80
29539;DHT22;16482;51.046;4.498;2022-10-31T10:21:29;24.00;50.00
29539;DHT22;16482;51.046;4.498;2022-10-31T10:24:12;24.00;50.00
29539;DHT22;16482;51.046;4.498;2022-10-31T10:27:12;24.00;50.20
29539;DHT22;16482;51.046;4.498;2022-10-31T10:29:54;24.00;50.10
29539;DHT22;16482;51.046;4.498;2022-10-31T10:32:27;24.00;50.20
29539;DHT22;16482;51.046;4.498;2022-10-31T10:35:24;24.10;50.20
29539;DHT22;16482;51.046;4.498;2022-10-31T10:40:48;24.10;50.10
29539;DHT22;16482;51.046;4.498;2022-10-31T10:43:33;24.10;50.10
29539;DHT22;16482;51.046;4.498;2022-10-31T10:46:41;24.10;50.20
29539;DHT22;16482;51.046;4.498;2022-10-31T10:49:51;24.10;50.20
29539;DHT22;16482;51.046;4.498;2022-10-31T10:55:14;24.10;50.40
29539;DHT22;16482;51.046;4.498;2022-10-31T10:58:02;24.10;50.30
29539;DHT22;16482;51.046;4.498;2022-10-31T11:00:35;24.10;50.40
29539;DHT22;16482;51.046;4.498;2022-10-31T11:03:01;24.10;50.60
29539;DHT22;16482;51.046;4.498;2022-10-31T11:05:52;24.10;50.70
29539;DHT22;16482;51.046;4.498;2022-10-31T11:08:34;24.10;50.60
29539;DHT22;16482;51.046;4.498;2022-10-31T11:11:01;24.10;50.60
29539;DHT22;16482;51.046;4.498;2022-10-31T11:13:28;24.10;50.60
29539;DHT22;16482;51.046;4.498;2022-10-31T11:16:07;24.10;50.70
29539;DHT22;16482;51.046;4.498;2022-10-31T11:18:40;24.10;50.80
29539;DHT22;16482;51.046;4.498;2022-10-31T11:21:26;24.10;50.90
29539;DHT22;16482;51.046;4.498;2022-10-31T11:24:24;24.10;50.90
29539;DHT22;16482;51.046;4.498;2022-10-31T11:27:12;24.10;51.00
29539;DHT22;16482;51.046;4.498;2022-10-31T11:29:38;24.10;51.00
29539;DHT22;16482;51.046;4.498;2022-10-31T11:32:04;24.10;51.20
29539;DHT22;16482;51.046;4.498;2022-10-31T11:34:42;24.10;51.20
29539;DHT22;16482;51.046;4.498;2022-10-31T11:37:21;24.00;51.20
29539;DHT22;16482;51.046;4.498;2022-10-31T11:39:53;24.10;51.20
29539;DHT22;16482;51.046;4.498;2022-10-31T11:42:26;24.00;51.30
29539;DHT22;16482;51.046;4.498;2022-10-31T11:44:53;24.10;51.40
29539;DHT22;16482;51.046;4.498;2022-10-31T11:47:30;24.00;51.40
29539;DHT22;16482;51.046;4.498;2022-10-31T11:50:02;24.00;51.50
29539;DHT22;16482;51.046;4.498;2022-10-31T11:52:31;24.00;51.70
29539;DHT22;16482;51.046;4.498;2022-10-31T11:54:59;24.00;51.60
29539;DHT22;16482;51.046;4.498;2022-10-31T11:57:31;24.00;51.60
29539;DHT22;16482;51.046;4.498;2022-10-31T12:00:00;24.10;51.70
29539;DHT22;16482;51.046;4.498;2022-10-31T12:02:27;24.10;51.70
29539;DHT22;16482;51.046;4.498;2022-10-31T12:05:02;24.00;51.70
29539;DHT22;16482;51.046;4.498;2022-10-31T12:07:28;24.00;51.70
29539;DHT22;16482;51.046;4.498;2022-10-31T12:09:54;24.00;51.70
29539;DHT22;16482;51.046;4.498;2022-10-31T12:15:30;24.10;51.70
29539;DHT22;16482;51.046;4.498;2022-10-31T12:26:15;24.10;51.90
29539;DHT22;16482;51.046;4.498;2022-10-31T12:29:13;24.00;52.00
29539;DHT22;16482;51.046;4.498;2022-10-31T12:34:52;24.00;52.10
29539;DHT22;16482;51.046;4.498;2022-10-31T12:45:55;24.00;52.50
29539;DHT22;16482;51.046;4.498;2022-10-31T12:59:42;24.00;52.50
29539;DHT22;16482;51.046;4.498;2022-10-31T13:07:56;24.00;53.00
29539;DHT22;16482;51.046;4.498;2022-10-31T13:10:43;24.00;52.90
29539;DHT22;16482;51.046;4.498;2022-10-31T13:13:40;24.00;52.80
29539;DHT22;16482;51.046;4.498;2022-10-31T13:16:17;24.00;52.80
29539;DHT22;16482;51.046;4.498;2022-10-31T13:24:38;24.00;52.80
29539;DHT22;16482;51.046;4.498;2022-10-31T13:27:28;24.00;52.70
29539;DHT22;16482;51.046;4.498;2022-10-31T13:35:51;24.00;52.60
29539;DHT22;16482;51.046;4.498;2022-10-31T13:41:38;23.90;52.40
29539;DHT22;16482;51.046;4.498;2022-10-31T13:44:22;24.00;52.30
29539;DHT22;16482;51.046;4.498;2022-10-31T13:46:54;24.00;52.20
29539;DHT22;16482;51.046;4.498;2022-10-31T13:54:39;24.00;52.10
29539;DHT22;16482;51.046;4.498;2022-10-31T13:57:21;23.90;52.00
29539;DHT22;16482;51.046;4.498;2022-10-31T13:59:58;24.00;52.00
29539;DHT22;16482;51.046;4.498;2022-10-31T14:02:30;23.90;51.90
29539;DHT22;16482;51.046;4.498;2022-10-31T14:07:45;23.90;52.00
29539;DHT22;16482;51.046;4.498;2022-10-31T14:10:28;23.90;51.90
29539;DHT22;16482;51.046;4.498;2022-10-31T14:13:24;23.90;51.90
29539;DHT22;16482;51.046;4.498;2022-10-31T14:15:57;23.90;51.90
29539;DHT22;16482;51.046;4.498;2022-10-31T14:18:38;23.90;52.00
29539;DHT22;16482;51.046;4.498;2022-10-31T14:23:50;24.00;51.90
29539;DHT22;16482;51.046;4.498;2022-10-31T14:28:53;24.10;51.90
29539;DHT22;16482;51.046;4.498;2022-10-31T14:31:37;24.10;51.70
29539;DHT22;16482;51.046;4.498;2022-10-31T14:34:27;24.10;51.90
29539;DHT22;16482;51.046;4.498;2022-10-31T14:37:25;24.10;52.00
29539;DHT22;16482;51.046;4.498;2022-10-31T14:40:07;24.10;52.00
29539;DHT22;16482;51.046;4.498;2022-10-31T14:45:31;24.10;52.00
29539;DHT22;16482;51.046;4.498;2022-10-31T14:50:37;24.10;52.10
29539;DHT22;16482;51.046;4.498;2022-10-31T14:53:14;24.10;52.10
29539;DHT22;16482;51.046;4.498;2022-10-31T14:55:48;24.10;52.20
29539;DHT22;16482;51.046;4.498;2022-10-31T14:58:24;24.10;52.20
29539;DHT22;16482;51.046;4.498;2022-10-31T15:00:56;24.20;52.30
29539;DHT22;16482;51.046;4.498;2022-10-31T15:03:24;24.20;52.20
29539;DHT22;16482;51.046;4.498;2022-10-31T15:05:54;24.10;52.30
29539;DHT22;16482;51.046;4.498;2022-10-31T15:08:44;24.10;52.30
29539;DHT22;16482;51.046;4.498;2022-10-31T15:11:17;24.10;52.30
29539;DHT22;16482;51.046;4.498;2022-10-31T15:13:49;24.10;52.30
29539;DHT22;16482;51.046;4.498;2022-10-31T15:16:22;24.10;52.20
29539;DHT22;16482;51.046;4.498;2022-10-31T15:18:57;24.10;52.20
29539;DHT22;16482;51.046;4.498;2022-10-31T15:21:27;24.00;52.10
29539;DHT22;16482;51.046;4.498;2022-10-31T15:23:59;24.10;52.20
29539;DHT22;16482;51.046;4.498;2022-10-31T15:26:37;24.00;52.10
29539;DHT22;16482;51.046;4.498;2022-10-31T15:29:11;24.00;52.00
29539;DHT22;16482;51.046;4.498;2022-10-31T15:31:38;24.00;51.90
29539;DHT22;16482;51.046;4.498;2022-10-31T15:34:19;24.00;51.90
29539;DHT22;16482;51.046;4.498;2022-10-31T15:36:48;24.00;51.90
29539;DHT22;16482;51.046;4.498;2022-10-31T15:39:18;24.00;51.90
29539;DHT22;16482;51.046;4.498;2022-10-31T15:41:56;24.00;51.90
29539;DHT22;16482;51.046;4.498;2022-10-31T15:44:32;24.00;51.80
29539;DHT22;16482;51.046;4.498;2022-10-31T15:47:07;24.00;52.00
29539;DHT22;16482;51.046;4.498;2022-10-31T15:49:42;24.00;52.20
29539;DHT22;16482;51.046;4.498;2022-10-31T15:54:51;24.00;52.20
29539;DHT22;16482;51.046;4.498;2022-10-31T15:57:20;24.00;52.20
29539;DHT22;16482;51.046;4.498;2022-10-31T15:59:48;23.90;52.10
29539;DHT22;16482;51.046;4.498;2022-10-31T16:02:22;23.90;52.00
29539;DHT22;16482;51.046;4.498;2022-10-31T16:04:55;24.00;52.00
29539;DHT22;16482;51.046;4.498;2022-10-31T16:07:23;23.90;52.00
29539;DHT22;16482;51.046;4.498;2022-10-31T16:09:52;23.90;52.00
29539;DHT22;16482;51.046;4.498;2022-10-31T16:12:20;23.90;51.90
29539;DHT22;16482;51.046;4.498;2022-10-31T16:14:47;23.90;51.90
29539;DHT22;16482;51.046;4.498;2022-10-31T16:17:16;23.90;51.90
29539;DHT22;16482;51.046;4.498;2022-10-31T16:20:04;23.90;51.80
29539;DHT22;16482;51.046;4.498;2022-10-31T16:22:34;23.90;51.90
29539;DHT22;16482;51.046;4.498;2022-10-31T16:25:08;23.90;51.80
29539;DHT22;16482;51.046;4.498;2022-10-31T16:27:36;23.90;51.80
29539;DHT22;16482;51.046;4.498;2022-10-31T16:30:37;23.90;51.90
29539;DHT22;16482;51.046;4.498;2022-10-31T16:33:20;23.90;51.90
29539;DHT22;16482;51.046;4.498;2022-10-31T16:35:47;23.90;52.00
29539;DHT22;16482;51.046;4.498;2022-10-31T16:38:13;23.80;51.90
29539;DHT22;16482;51.046;4.498;2022-10-31T16:40:40;23.90;52.10
29539;DHT22;16482;51.046;4.498;2022-10-31T16:43:15;23.80;52.00
29539;DHT22;16482;51.046;4.498;2022-10-31T16:45:49;23.90;52.00
29539;DHT22;16482;51.046;4.498;2022-10-31T16:48:18;23.80;52.00
29539;DHT22;16482;51.046;4.498;2022-10-31T16:50:46;23.80;52.00
29539;DHT22;16482;51.046;4.498;2022-10-31T16:53:14;23.90;52.10
29539;DHT22;16482;51.046;4.498;2022-10-31T16:58:32;23.80;52.00
29539;DHT22;16482;51.046;4.498;2022-10-31T17:01:03;23.90;52.10
29539;DHT22;16482;51.046;4.498;2022-10-31T17:03:33;23.80;52.10
29539;DHT22;16482;51.046;4.498;2022-10-31T17:06:22;23.80;52.10
29539;DHT22;16482;51.046;4.498;2022-10-31T17:09:02;23.90;52.10
29539;DHT22;16482;51.046;4.498;2022-10-31T17:11:28;23.80;52.10
29539;DHT22;16482;51.046;4.498;2022-10-31T17:13:55;23.80;52.10
29539;DHT22;16482;51.046;4.498;2022-10-31T17:16:22;23.80;52.10
29539;DHT22;16482;51.046;4.498;2022-10-31T17:18:49;23.90;52.10
29539;DHT22;16482;51.046;4.498;2022-10-31T17:21:21;23.90;52.10
29539;DHT22;16482;51.046;4.498;2022-10-31T17:23:49;23.80;52.20
29539;DHT22;16482;51.046;4.498;2022-10-31T17:26:18;23.90;52.20
29539;DHT22;16482;51.046;4.498;2022-10-31T17:28:44;23.80;52.10
29539;DHT22;16482;51.046;4.498;2022-10-31T17:31:33;23.80;52.10
29539;DHT22;16482;51.046;4.498;2022-10-31T17:34:01;23.80;52.10
29539;DHT22;16482;51.046;4.498;2022-10-31T17:36:30;23.80;52.10
29539;DHT22;16482;51.046;4.498;2022-10-31T17:38:56;23.80;52.20
29539;DHT22;16482;51.046;4.498;2022-10-31T17:41:23;23.80;52.20
29539;DHT22;16482;51.046;4.498;2022-10-31T17:43:56;23.80;52.20
29539;DHT22;16482;51.046;4.498;2022-10-31T17:46:23;23.80;52.30
29539;DHT22;16482;51.046;4.498;2022-10-31T17:48:52;23.80;52.10
29539;DHT22;16482;51.046;4.498;2022-10-31T17:51:19;23.70;52.10
29539;DHT22;16482;51.046;4.498;2022-10-31T17:53:52;23.80;52.20
29539;DHT22;16482;51.046;4.498;2022-10-31T17:56:18;23.80;52.20
29539;DHT22;16482;51.046;4.498;2022-10-31T17:58:44;23.70;52.10
29539;DHT22;16482;51.046;4.498;2022-10-31T18:01:15;23.70;52.10
29539;DHT22;16482;51.046;4.498;2022-10-31T18:03:51;23.70;52.10